Time,TemperatureF,DewpointF,PressureIn,WindDirection,WindDirectionDegrees,WindSpeedMPH,WindSpeedGustMPH,Humidity,HourlyPrecipIn,Conditions,Clouds,dailyrainin,SoftwareType,DateUTC
2013-09-17 00:00:00,46.4,45.3,30.34,North,2,0.0,0.0,96,0.00,,,0.00,Wunderground v.1.15,2013-09-17 04:00:00,
2013-09-17 00:05:00,46.3,45.2,30.34,North,3,0.0,0.0,96,0.00,,,0.00,Wunderground v.1.15,2013-09-17 04:05:00,
2013-09-17 00:10:00,46.4,45.3,30.34,North,2,0.0,0.0,96,0.00,,,0.00,Wunderground v.1.15,2013-09-17 04:10:00,
2013-09-17 00:15:00,46.3,45.2,30.34,North,2,0.0,0.0,96,0.00,,,0.00,Wunderground v.1.15,2013-09-17 04:15:00,
2013-09-17 00:20:00,46.2,45.1,30.34,North,3,0.0,0.0,96,0.00,,,0.00,Wunderground v.1.15,2013-09-17 04:20:00,
2013-09-17 04:45:00,43.1,42.6,30.37,WSW,238,0.0,0.0,98,0.00,,,0.00,Wunderground v.1.15,2013-09-17 08:45:00,
2013-09-17 04:50:00,43.3,42.8,30.37,WSW,238,0.0,0.0,98,0.00,,,0.00,Wunderground v.1.15,2013-09-17 08:50:00,
2013-09-17 04:55:00,43.3,42.8,30.37,WSW,238,0.0,0.0,98,0.00,,,0.00,Wunderground v.1.15,2013-09-17 08:55:00,
2013-09-17 05:05:00,43.2,42.7,30.37,WSW,238,0.0,0.0,98,0.00,,,0.00,Wunderground v.1.15,2013-09-17 09:05:00,
2013-09-17 05:10:00,43.1,42.6,30.37,WSW,238,0.0,0.0,98,0.00,,,0.00,Wunderground v.1.15,2013-09-17 09:10:00,
2013-09-17 05:20:00,43.0,42.5,30.37,WSW,238,0.0,0.0,98,0.00,,,0.00,Wunderground v.1.15,2013-09-17 09:20:00,
2013-09-17 05:25:00,43.0,42.5,30.37,WSW,238,0.0,0.0,98,0.00,,,0.00,Wunderground v.1.15,2013-09-17 09:25:00,
2013-09-17 05:30:00,42.9,42.4,30.37,WSW,238,0.0,0.0,98,0.00,,,0.00,Wunderground v.1.15,2013-09-17 09:30:00,
2013-09-17 05:35:00,42.7,42.2,30.37,WSW,238,0.0,0.0,98,0.00,,,0.00,Wunderground v.1.15,2013-09-17 09:35:00,
2013-09-17 05:40:00,42.5,42.0,30.37,WSW,238,0.0,0.0,98,0.00,,,0.00,Wunderground v.1.15,2013-09-17 09:40:00,
2013-09-17 05:45:00,42.3,41.8,30.38,WSW,238,0.0,0.0,98,0.00,,,0.00,Wunderground v.1.15,2013-09-17 09:45:00,
2013-09-17 05:55:00,41.7,40.9,30.38,WSW,238,0.0,0.0,97,0.00,,,0.00,Wunderground v.1.15,2013-09-17 09:55:00,
2013-09-17 06:05:00,41.4,40.6,30.38,WSW,238,0.0,0.0,97,0.00,,,0.00,Wunderground v.1.15,2013-09-17 10:05:00,
2013-09-17 06:10:00,41.5,41.0,30.38,WSW,238,0.0,0.0,98,0.00,,,0.00,Wunderground v.1.15,2013-09-17 10:10:00,
2013-09-17 06:15:00,41.6,41.1,30.38,WSW,238,0.0,0.0,98,0.00,,,0.00,Wunderground v.1.15,2013-09-17 10:15:00,
2013-09-17 06:25:00,41.8,41.3,30.38,WSW,238,0.0,0.0,98,0.00,,,0.00,Wunderground v.1.15,2013-09-17 10:25:00,
2013-09-17 06:30:00,41.7,41.2,30.38,WSW,238,0.0,0.0,98,0.00,,,0.00,Wunderground v.1.15,2013-09-17 10:30:00,
2013-09-17 06:35:00,41.4,40.9,30.38,WSW,238,0.0,0.0,98,0.00,,,0.00,Wunderground v.1.15,2013-09-17 10:35:00,
2013-09-17 06:40:00,41.2,40.7,30.38,WSW,238,0.0,0.0,98,0.00,,,0.00,Wunderground v.1.15,2013-09-17 10:40:00,
2013-09-17 06:45:00,41.3,40.8,30.38,WSW,238,0.0,0.0,98,0.00,,,0.00,Wunderground v.1.15,2013-09-17 10:45:00,
2013-09-17 06:50:00,41.2,40.7,30.38,WSW,238,0.0,0.0,98,0.00,,,0.00,Wunderground v.1.15,2013-09-17 10:50:00,
2013-09-17 06:55:00,41.1,40.6,30.38,WSW,238,0.0,0.0,98,0.00,,,0.00,Wunderground v.1.15,2013-09-17 10:55:00,
2013-09-17 07:00:00,40.9,40.4,30.39,WSW,238,0.0,0.0,98,0.00,,,0.00,Wunderground v.1.15,2013-09-17 11:00:00,
2013-09-17 07:10:00,40.2,39.4,30.39,WSW,238,0.0,0.0,97,0.00,,,0.00,Wunderground v.1.15,2013-09-17 11:10:00,
2013-09-17 07:15:00,39.9,39.1,30.39,WSW,238,0.0,0.0,97,0.00,,,0.00,Wunderground v.1.15,2013-09-17 11:15:00,
2013-09-17 07:20:00,39.8,39.0,30.39,WSW,238,0.0,0.0,97,0.00,,,0.00,Wunderground v.1.15,2013-09-17 11:20:00,
2013-09-17 07:25:00,39.7,39.2,30.39,WSW,238,0.0,0.0,98,0.00,,,0.00,Wunderground v.1.15,2013-09-17 11:25:00,
2013-09-17 07:30:00,39.6,39.1,30.39,WSW,238,0.0,0.0,98,0.00,,,0.00,Wunderground v.1.15,2013-09-17 11:30:00,
2013-09-17 07:35:00,39.6,39.1,30.39,WSW,238,0.0,0.0,98,0.00,,,0.00,Wunderground v.1.15,2013-09-17 11:35:00,
2013-09-17 07:40:00,39.7,39.2,30.39,WSW,238,0.0,0.0,98,0.00,,,0.00,Wunderground v.1.15,2013-09-17 11:40:00,
2013-09-17 07:45:00,40.7,40.2,30.39,WSW,238,0.0,0.0,98,0.00,,,0.00,Wunderground v.1.15,2013-09-17 11:45:00,
2013-09-17 07:55:00,42.5,42.0,30.40,WSW,242,0.0,0.0,98,0.00,,,0.00,Wunderground v.1.15,2013-09-17 11:55:00,
2013-09-17 08:00:00,43.0,42.5,30.40,WNW,286,0.0,0.0,98,0.00,,,0.00,Wunderground v.1.15,2013-09-17 12:00:00,
2013-09-17 08:10:00,43.4,42.9,30.40,NNW,336,0.0,0.0,98,0.00,,,0.00,Wunderground v.1.15,2013-09-17 12:10:00,
2013-09-17 08:15:00,43.7,43.2,30.40,NNW,336,0.0,0.0,98,0.00,,,0.00,Wunderground v.1.15,2013-09-17 12:15:00,
2013-09-17 08:20:00,44.1,43.6,30.40,NNW,336,1.0,1.0,98,0.00,,,0.00,Wunderground v.1.15,2013-09-17 12:20:00,
2013-09-17 08:25:00,44.5,44.0,30.40,North,351,1.0,1.0,98,0.00,,,0.00,Wunderground v.1.15,2013-09-17 12:25:00,
2013-09-17 08:35:00,44.9,44.6,30.39,North,359,1.0,1.0,99,0.00,,,0.00,Wunderground v.1.15,2013-09-17 12:35:00,
2013-09-17 08:40:00,45.2,44.9,30.39,North,11,1.0,2.0,99,0.00,,,0.00,Wunderground v.1.15,2013-09-17 12:40:00,
2013-09-17 08:45:00,45.5,45.2,30.39,North,1,1.0,2.0,99,0.00,,,0.00,Wunderground v.1.15,2013-09-17 12:45:00,
2013-09-17 08:50:00,46.1,45.8,30.39,North,354,1.0,1.0,99,0.00,,,0.00,Wunderground v.1.15,2013-09-17 12:50:00,
2013-09-17 08:55:00,46.9,46.6,30.40,NNW,335,1.0,1.0,99,0.00,,,0.00,Wunderground v.1.15,2013-09-17 12:55:00,
2013-09-17 09:00:00,47.5,47.2,30.40,NNW,329,0.0,0.0,99,0.00,,,0.00,Wunderground v.1.15,2013-09-17 13:00:00,
2013-09-17 11:10:00,59.1,52.9,30.38,NNE,29,1.0,3.0,80,0.00,,,0.00,Wunderground v.1.15,2013-09-17 15:10:00,
2013-09-17 11:20:00,59.1,53.6,30.38,ESE,108,2.0,2.0,82,0.00,,,0.00,Wunderground v.1.15,2013-09-17 15:20:00,
2013-09-17 11:25:00,60.1,54.6,30.38,NNE,15,1.0,2.0,82,0.00,,,0.00,Wunderground v.1.15,2013-09-17 15:25:00,
2013-09-17 11:30:00,60.9,54.0,30.38,NE,51,1.0,2.0,78,0.00,,,0.00,Wunderground v.1.15,2013-09-17 15:30:00,
2013-09-17 11:40:00,61.3,54.0,30.38,NE,34,1.0,1.0,77,0.00,,,0.00,Wunderground v.1.15,2013-09-17 15:40:00,
2013-09-17 11:45:00,62.1,54.1,30.37,NNE,15,1.0,3.0,75,0.00,,,0.00,Wunderground v.1.15,2013-09-17 15:45:00,
2013-09-17 11:50:00,61.9,53.5,30.37,North,353,2.0,3.0,74,0.00,,,0.00,Wunderground v.1.15,2013-09-17 15:50:00,
2013-09-17 11:55:00,62.0,54.3,30.37,NE,48,2.0,3.0,76,0.00,,,0.00,Wunderground v.1.15,2013-09-17 15:55:00,
2013-09-17 12:00:00,62.5,55.2,30.37,NE,45,1.0,1.0,77,0.00,,,0.00,Wunderground v.1.15,2013-09-17 16:00:00,
2013-09-17 12:10:00,64.1,54.1,30.37,NNE,29,1.0,2.0,70,0.00,,,0.00,Wunderground v.1.15,2013-09-17 16:10:00,
2013-09-17 12:15:00,64.3,53.9,30.37,NNW,329,1.0,2.0,69,0.00,,,0.00,Wunderground v.1.15,2013-09-17 16:15:00,
2013-09-17 12:20:00,64.3,54.3,30.37,SE,139,1.0,5.0,70,0.00,,,0.00,Wunderground v.1.15,2013-09-17 16:20:00,
2013-09-17 12:25:00,64.5,54.9,30.36,West,262,2.0,5.0,71,0.00,,,0.00,Wunderground v.1.15,2013-09-17 16:25:00,
2013-09-17 12:30:00,64.9,54.9,30.36,NNE,13,2.0,2.0,70,0.00,,,0.00,Wunderground v.1.15,2013-09-17 16:30:00,
2013-09-17 12:35:00,64.9,54.5,30.36,North,354,1.0,2.0,69,0.00,,,0.00,Wunderground v.1.15,2013-09-17 16:35:00,
2013-09-17 12:45:00,65.8,54.5,30.36,SE,142,1.0,1.0,67,0.00,,,0.00,Wunderground v.1.15,2013-09-17 16:45:00,
2013-09-17 12:50:00,66.3,54.6,30.36,NW,317,1.0,1.0,66,0.00,,,0.00,Wunderground v.1.15,2013-09-17 16:50:00,
2013-09-17 12:55:00,65.9,54.2,30.36,North,9,1.0,2.0,66,0.00,,,0.00,Wunderground v.1.15,2013-09-17 16:55:00,
2013-09-17 13:05:00,67.0,55.3,30.35,SW,226,1.0,2.0,66,0.00,,,0.00,Wunderground v.1.15,2013-09-17 17:05:00,
2013-09-17 13:10:00,67.8,55.6,30.35,WSW,251,1.0,2.0,65,0.00,,,0.00,Wunderground v.1.15,2013-09-17 17:10:00,
2013-09-17 13:20:00,68.5,55.4,30.35,SSE,165,1.0,4.0,63,0.00,,,0.00,Wunderground v.1.15,2013-09-17 17:20:00,
2013-09-17 13:25:00,68.0,54.9,30.35,SSW,208,3.0,5.0,63,0.00,,,0.00,Wunderground v.1.15,2013-09-17 17:25:00,
2013-09-17 13:40:00,68.6,55.1,30.34,SW,219,1.0,1.0,62,0.00,,,0.00,Wunderground v.1.15,2013-09-17 17:40:00,
2013-09-17 13:45:00,68.5,54.1,30.34,West,274,2.0,3.0,60,0.00,,,0.00,Wunderground v.1.15,2013-09-17 17:45:00,
2013-09-17 13:50:00,68.0,54.9,30.34,SW,231,3.0,3.0,63,0.00,,,0.00,Wunderground v.1.15,2013-09-17 17:50:00,
2013-09-17 13:55:00,68.8,55.2,30.34,North,9,2.0,3.0,62,0.00,,,0.00,Wunderground v.1.15,2013-09-17 17:55:00,
2013-09-17 14:00:00,69.4,55.4,30.34,ENE,75,1.0,1.0,61,0.00,,,0.00,Wunderground v.1.15,2013-09-17 18:00:00,
2013-09-17 14:10:00,69.9,54.4,30.33,NNW,348,2.0,2.0,58,0.00,,,0.00,Wunderground v.1.15,2013-09-17 18:10:00,
2013-09-17 14:20:00,69.7,57.4,30.33,WSW,243,2.0,2.0,65,0.00,,,0.00,Wunderground v.1.15,2013-09-17 18:20:00,
2013-09-17 14:25:00,70.5,55.9,30.33,North,8,1.0,2.0,60,0.00,,,0.00,Wunderground v.1.15,2013-09-17 18:25:00,
2013-09-17 14:30:00,71.1,57.0,30.32,ESE,103,1.0,1.0,61,0.00,,,0.00,Wunderground v.1.15,2013-09-17 18:30:00,
2013-09-17 14:35:00,72.0,56.9,30.32,SSW,211,0.0,2.0,59,0.00,,,0.00,Wunderground v.1.15,2013-09-17 18:35:00,
2013-09-17 14:40:00,72.0,56.4,30.32,WSW,249,1.0,1.0,58,0.00,,,0.00,Wunderground v.1.15,2013-09-17 18:40:00,
2013-09-17 14:50:00,71.0,55.5,30.32,SSW,197,2.0,2.0,58,0.00,,,0.00,Wunderground v.1.15,2013-09-17 18:50:00,
2013-09-17 15:05:00,72.1,55.0,30.31,SE,124,1.0,2.0,55,0.00,,,0.00,Wunderground v.1.15,2013-09-17 19:05:00,
2013-09-17 15:10:00,72.3,57.6,30.31,East,89,1.0,1.0,60,0.00,,,0.00,Wunderground v.1.15,2013-09-17 19:10:00,
2013-09-17 15:15:00,73.0,56.4,30.30,East,82,1.0,1.0,56,0.00,,,0.00,Wunderground v.1.15,2013-09-17 19:15:00,
2013-09-17 15:25:00,73.5,56.8,30.30,NNE,26,1.0,2.0,56,0.00,,,0.00,Wunderground v.1.15,2013-09-17 19:25:00,
2013-09-17 15:30:00,72.3,55.2,30.30,ENE,69,2.0,2.0,55,0.00,,,0.00,Wunderground v.1.15,2013-09-17 19:30:00,
2013-09-17 15:35:00,72.2,55.1,30.30,SSW,193,2.0,2.0,55,0.00,,,0.00,Wunderground v.1.15,2013-09-17 19:35:00,
2013-09-17 15:45:00,72.6,55.0,30.30,East,101,2.0,2.0,54,0.00,,,0.00,Wunderground v.1.15,2013-09-17 19:45:00,
2013-09-17 15:50:00,72.9,54.8,30.29,NNE,13,1.0,3.0,53,0.00,,,0.00,Wunderground v.1.15,2013-09-17 19:50:00,
2013-09-17 15:55:00,73.0,55.9,30.29,NNE,15,1.0,3.0,55,0.00,,,0.00,Wunderground v.1.15,2013-09-17 19:55:00,
2013-09-17 16:00:00,73.1,56.0,30.29,NE,56,1.0,2.0,55,0.00,,,0.00,Wunderground v.1.15,2013-09-17 20:00:00,
2013-09-17 16:10:00,74.0,55.8,30.28,SSE,165,1.0,2.0,53,0.00,,,0.00,Wunderground v.1.15,2013-09-17 20:10:00,
2013-09-17 16:15:00,74.5,56.2,30.28,SSE,166,1.0,2.0,53,0.00,,,0.00,Wunderground v.1.15,2013-09-17 20:15:00,
2013-09-17 16:20:00,74.2,57.0,30.28,WSW,248,1.0,1.0,55,0.00,,,0.00,Wunderground v.1.15,2013-09-17 20:20:00,
2013-09-17 16:30:00,74.0,55.8,30.28,SSW,197,2.0,2.0,53,0.00,,,0.00,Wunderground v.1.15,2013-09-17 20:30:00,
2013-09-17 16:35:00,74.2,56.0,30.27,WSW,239,1.0,4.0,53,0.00,,,0.00,Wunderground v.1.15,2013-09-17 20:35:00,
2013-09-17 16:45:00,74.4,56.7,30.27,ENE,75,2.0,2.0,54,0.00,,,0.00,Wunderground v.1.15,2013-09-17 20:45:00,
2013-09-17 16:50:00,74.5,56.8,30.27,ESE,110,1.0,1.0,54,0.00,,,0.00,Wunderground v.1.15,2013-09-17 20:50:00,
2013-09-17 16:55:00,75.1,56.8,30.27,ESE,108,1.0,1.0,53,0.00,,,0.00,Wunderground v.1.15,2013-09-17 20:55:00,
2013-09-17 17:00:00,75.3,57.5,30.27,ENE,70,1.0,1.0,54,0.00,,,0.00,Wunderground v.1.15,2013-09-17 21:00:00,
2013-09-17 17:10:00,75.5,57.7,30.26,ESE,106,1.0,1.0,54,0.00,,,0.00,Wunderground v.1.15,2013-09-17 21:10:00,
2013-09-17 17:15:00,75.6,56.7,30.26,SW,219,1.0,1.0,52,0.00,,,0.00,Wunderground v.1.15,2013-09-17 21:15:00,
2013-09-17 17:20:00,75.5,56.1,30.26,SE,138,1.0,1.0,51,0.00,,,0.00,Wunderground v.1.15,2013-09-17 21:20:00,
2013-09-17 17:25:00,75.6,57.3,30.26,ESE,121,1.0,1.0,53,0.00,,,0.00,Wunderground v.1.15,2013-09-17 21:25:00,
2013-09-17 17:30:00,75.7,56.8,30.26,East,79,1.0,2.0,52,0.00,,,0.00,Wunderground v.1.15,2013-09-17 21:30:00,
2013-09-17 17:35:00,75.7,57.4,30.26,ENE,65,1.0,2.0,53,0.00,,,0.00,Wunderground v.1.15,2013-09-17 21:35:00,
2013-09-17 17:40:00,76.0,58.7,30.26,NNE,26,1.0,1.0,55,0.00,,,0.00,Wunderground v.1.15,2013-09-17 21:40:00,
2013-09-17 17:50:00,76.2,56.7,30.26,ENE,75,1.0,1.0,51,0.00,,,0.00,Wunderground v.1.15,2013-09-17 21:50:00,
2013-09-17 18:00:00,76.3,56.8,30.26,ENE,58,0.0,1.0,51,0.00,,,0.00,Wunderground v.1.15,2013-09-17 22:00:00,
2013-09-17 18:10:00,75.7,58.4,30.26,South,191,1.0,1.0,55,0.00,,,0.00,Wunderground v.1.15,2013-09-17 22:10:00,
2013-09-17 18:15:00,76.2,57.8,30.26,South,190,0.0,1.0,53,0.00,,,0.00,Wunderground v.1.15,2013-09-17 22:15:00,
2013-09-17 18:20:00,76.4,58.0,30.26,South,190,0.0,0.0,53,0.00,,,0.00,Wunderground v.1.15,2013-09-17 22:20:00,
2013-09-17 18:25:00,76.6,57.1,30.26,SSE,160,0.0,1.0,51,0.00,,,0.00,Wunderground v.1.15,2013-09-17 22:25:00,
2013-09-17 18:30:00,75.9,56.5,30.26,SSE,160,0.0,0.0,51,0.00,,,0.00,Wunderground v.1.15,2013-09-17 22:30:00,
2013-09-17 18:35:00,75.7,57.4,30.25,SSE,160,0.0,0.0,53,0.00,,,0.00,Wunderground v.1.15,2013-09-17 22:35:00,
2013-09-17 18:40:00,74.6,57.4,30.25,SSE,160,0.0,0.0,55,0.00,,,0.00,Wunderground v.1.15,2013-09-17 22:40:00,
2013-09-17 18:50:00,72.6,57.9,30.25,SSE,160,0.0,0.0,60,0.00,,,0.00,Wunderground v.1.15,2013-09-17 22:50:00,
2013-09-17 18:55:00,70.8,56.7,30.25,SSE,160,0.0,0.0,61,0.00,,,0.00,Wunderground v.1.15,2013-09-17 22:55:00,
2013-09-17 19:00:00,68.5,56.3,30.25,SSE,160,0.0,0.0,65,0.00,,,0.00,Wunderground v.1.15,2013-09-17 23:00:00,
2013-09-17 19:10:00,64.5,54.9,30.25,SSE,160,0.0,0.0,71,0.00,,,0.00,Wunderground v.1.15,2013-09-17 23:10:00,
2013-09-17 19:15:00,63.1,54.7,30.25,SSE,160,0.0,0.0,74,0.00,,,0.00,Wunderground v.1.15,2013-09-17 23:15:00,
2013-09-17 19:20:00,62.0,54.3,30.25,SSE,161,0.0,0.0,76,0.00,,,0.00,Wunderground v.1.15,2013-09-17 23:20:00,
2013-09-17 19:30:00,60.0,53.5,30.25,SSE,160,0.0,0.0,79,0.00,,,0.00,Wunderground v.1.15,2013-09-17 23:30:00,
2013-09-17 19:35:00,59.0,53.2,30.25,SSE,160,0.0,0.0,81,0.00,,,0.00,Wunderground v.1.15,2013-09-17 23:35:00,
2013-09-17 19:40:00,58.0,52.9,30.25,SSE,161,0.0,0.0,83,0.00,,,0.00,Wunderground v.1.15,2013-09-17 23:40:00,
2013-09-17 19:45:00,57.2,52.4,30.25,SSE,160,0.0,0.0,84,0.00,,,0.00,Wunderground v.1.15,2013-09-17 23:45:00,
2013-09-17 19:50:00,56.5,52.0,30.25,SSE,160,0.0,0.0,85,0.00,,,0.00,Wunderground v.1.15,2013-09-17 23:50:00,
2013-09-17 19:55:00,55.8,51.7,30.25,SSE,160,0.0,0.0,86,0.00,,,0.00,Wunderground v.1.15,2013-09-17 23:55:00,
2013-09-17 20:05:00,54.7,51.2,30.25,SSE,160,0.0,0.0,88,0.00,,,0.00,Wunderground v.1.15,2013-09-18 00:05:00,
2013-09-17 20:10:00,54.3,50.8,30.25,SSE,160,0.0,0.0,88,0.00,,,0.00,Wunderground v.1.15,2013-09-18 00:10:00,
2013-09-17 20:15:00,53.8,50.6,30.25,SSE,160,0.0,0.0,89,0.00,,,0.00,Wunderground v.1.15,2013-09-18 00:15:00,
2013-09-17 20:20:00,53.5,50.6,30.25,SSE,160,0.0,0.0,90,0.00,,,0.00,Wunderground v.1.15,2013-09-18 00:20:00,
2013-09-17 20:25:00,53.2,50.3,30.25,SSE,161,0.0,0.0,90,0.00,,,0.00,Wunderground v.1.15,2013-09-18 00:25:00,
2013-09-17 20:35:00,52.7,50.1,30.25,SSE,161,0.0,0.0,91,0.00,,,0.00,Wunderground v.1.15,2013-09-18 00:35:00,
2013-09-17 20:40:00,52.4,50.1,30.25,SSE,161,0.0,0.0,92,0.00,,,0.00,Wunderground v.1.15,2013-09-18 00:40:00,
2013-09-17 20:45:00,52.1,49.8,30.25,SSE,160,0.0,0.0,92,0.00,,,0.00,Wunderground v.1.15,2013-09-18 00:45:00,
2013-09-17 20:50:00,51.9,49.6,30.25,SSE,160,0.0,0.0,92,0.00,,,0.00,Wunderground v.1.15,2013-09-18 00:50:00,
2013-09-17 21:00:00,51.7,49.7,30.25,SSE,160,0.0,0.0,93,0.00,,,0.00,Wunderground v.1.15,2013-09-18 01:00:00,
2013-09-17 21:10:00,51.6,49.9,30.25,SSE,161,0.0,0.0,94,0.00,,,0.00,Wunderground v.1.15,2013-09-18 01:10:00,
2013-09-17 21:15:00,51.5,49.8,30.25,SSE,160,0.0,0.0,94,0.00,,,0.00,Wunderground v.1.15,2013-09-18 01:15:00,
2013-09-17 21:20:00,51.4,49.7,30.25,SSE,161,0.0,0.0,94,0.00,,,0.00,Wunderground v.1.15,2013-09-18 01:20:00,
2013-09-17 21:25:00,51.4,49.7,30.25,SSE,160,0.0,0.0,94,0.00,,,0.00,Wunderground v.1.15,2013-09-18 01:25:00,
2013-09-17 21:30:00,51.3,49.9,30.25,SSE,160,0.0,0.0,95,0.00,,,0.00,Wunderground v.1.15,2013-09-18 01:30:00,
2013-09-17 21:35:00,51.3,49.9,30.25,SSE,161,0.0,0.0,95,0.00,,,0.00,Wunderground v.1.15,2013-09-18 01:35:00,
2013-09-17 21:45:00,51.3,49.9,30.25,SSE,160,0.0,0.0,95,0.00,,,0.00,Wunderground v.1.15,2013-09-18 01:45:00,
2013-09-17 21:50:00,51.2,49.8,30.25,SSE,160,0.0,0.0,95,0.00,,,0.00,Wunderground v.1.15,2013-09-18 01:50:00,
2013-09-17 21:55:00,51.2,49.8,30.25,SSE,160,0.0,0.0,95,0.00,,,0.00,Wunderground v.1.15,2013-09-18 01:55:00,
2013-09-17 22:00:00,51.2,50.1,30.25,SSE,161,0.0,0.0,96,0.00,,,0.00,Wunderground v.1.15,2013-09-18 02:00:00,
2013-09-17 22:10:00,51.1,50.0,30.25,SSE,160,0.0,0.0,96,0.00,,,0.00,Wunderground v.1.15,2013-09-18 02:10:00,
2013-09-17 22:15:00,51.0,49.9,30.25,SSE,160,0.0,0.0,96,0.00,,,0.00,Wunderground v.1.15,2013-09-18 02:15:00,
2013-09-17 22:25:00,50.7,49.6,30.26,SSE,161,0.0,0.0,96,0.00,,,0.00,Wunderground v.1.15,2013-09-18 02:25:00,
2013-09-17 22:30:00,50.6,49.5,30.25,SSE,160,0.0,0.0,96,0.00,,,0.00,Wunderground v.1.15,2013-09-18 02:30:00,
2013-09-17 22:35:00,50.5,49.4,30.26,SSE,161,0.0,0.0,96,0.00,,,0.00,Wunderground v.1.15,2013-09-18 02:35:00,
2013-09-17 22:40:00,50.3,49.2,30.26,SSE,160,0.0,0.0,96,0.00,,,0.00,Wunderground v.1.15,2013-09-18 02:40:00,
2013-09-17 22:45:00,50.0,48.9,30.26,SSE,160,0.0,0.0,96,0.00,,,0.00,Wunderground v.1.15,2013-09-18 02:45:00,
2013-09-17 22:50:00,49.7,48.6,30.26,SSE,160,0.0,0.0,96,0.00,,,0.00,Wunderground v.1.15,2013-09-18 02:50:00,
2013-09-17 22:55:00,49.5,48.4,30.26,SSE,161,0.0,0.0,96,0.00,,,0.00,Wunderground v.1.15,2013-09-18 02:55:00,
2013-09-17 23:05:00,49.5,48.4,30.26,SSE,160,0.0,0.0,96,0.00,,,0.00,Wunderground v.1.15,2013-09-18 03:05:00,
2013-09-17 23:15:00,49.3,48.2,30.26,SSE,161,0.0,0.0,96,0.00,,,0.00,Wunderground v.1.15,2013-09-18 03:15:00,
2013-09-17 23:20:00,49.2,48.1,30.25,SSE,160,0.0,0.0,96,0.00,,,0.00,Wunderground v.1.15,2013-09-18 03:20:00,
2013-09-17 23:25:00,49.2,48.1,30.26,SSE,160,0.0,0.0,96,0.00,,,0.00,Wunderground v.1.15,2013-09-18 03:25:00,
2013-09-17 23:30:00,49.0,48.2,30.26,SSE,160,0.0,0.0,97,0.00,,,0.00,Wunderground v.1.15,2013-09-18 03:30:00,
2013-09-17 23:35:00,48.9,48.1,30.25,SSE,160,0.0,0.0,97,0.00,,,0.00,Wunderground v.1.15,2013-09-18 03:35:00,
2013-09-17 23:40:00,48.8,48.0,30.25,SSE,160,0.0,0.0,97,0.00,,,0.00,Wunderground v.1.15,2013-09-18 03:40:00,
2013-09-17 23:45:00,48.6,47.8,30.25,SSE,161,0.0,0.0,97,0.00,,,0.00,Wunderground v.1.15,2013-09-18 03:45:00,
2013-09-17 23:50:00,48.4,47.6,30.25,SSE,160,0.0,0.0,97,0.00,,,0.00,Wunderground v.1.15,2013-09-18 03:50:00,
2013-09-17 23:55:00,48.1,47.3,30.25,SSE,160,0.0,0.0,97,0.00,,,0.00,Wunderground v.1.15,2013-09-18 03:55:00,